FW5351 Dobrich current weather conditions

sailwx.info

Air temperature 21.1° C
Dewpoint 13.8° C

Last reported at 2020-Aug-09 20:00 UTC.
Time now 2020-Aug-09 20:17 UTC

Location: N 43°33' E 027°50'.
View on Google Maps.

See reports from other nearby stations

  
Tides and Currents Weather Stations Pressure Air Temp Water Temp Dewpoint Dewpoint Depression Visibility Wind Speed Wind Dir Waves Ship Positions
date/time (UTC)wind fromknots sea level pressurealtimeterstation pressurevisibilityair tempwater tempwave heightnotes
2020-Aug-09 20:00 21.1
2020-Aug-09 19:51 225 21.1
2020-Aug-09 19:40 21.7
2020-Aug-09 19:30 21.7
2020-Aug-09 19:21 21.7
2020-Aug-09 19:10 22.2
2020-Aug-09 19:00 248 0 gusting 1 22.8
2020-Aug-09 18:51 003 1 gusting 2 22.8
2020-Aug-09 18:40 007 2 gusting 3 23.3
2020-Aug-09 18:30 015 1 gusting 3 23.3
2020-Aug-09 18:21 355 1 gusting 2 23.9
2020-Aug-09 18:10 031 2 gusting 3 23.9
2020-Aug-09 18:00 014 3 gusting 5 24.4
2020-Aug-09 17:51 053 6 gusting 9 25.0
2020-Aug-09 17:40 077 6 gusting 10 25.0
2020-Aug-09 17:30 058 9 gusting 13 25.6
2020-Aug-09 17:21 055 8 gusting 13 25.6
2020-Aug-09 17:10 028 6 gusting 10 25.6
2020-Aug-09 17:00 045 10 gusting 13 26.1
2020-Aug-09 16:51 057 9 gusting 18 26.7
2020-Aug-09 16:40 063 10 gusting 14 26.7
2020-Aug-09 16:30 068 11 gusting 18 26.7
2020-Aug-09 16:21 064 12 gusting 18 27.2
2020-Aug-09 16:10 044 11 gusting 19 27.2
2020-Aug-09 16:00 041 13 gusting 17 27.8
2020-Aug-09 15:51 034 13 gusting 21 27.8
2020-Aug-09 15:40 050 12 gusting 19 28.3
2020-Aug-09 15:30 041 8 gusting 14 28.3
2020-Aug-09 15:21 074 9 gusting 21 28.3
2020-Aug-09 15:10 059 10 gusting 14 29.4
2020-Aug-09 15:00 043 9 gusting 14 28.9
2020-Aug-09 14:51 053 10 gusting 13 28.9
2020-Aug-09 14:40 038 8 gusting 14 29.4
2020-Aug-09 14:30 046 8 gusting 14 29.4
2020-Aug-09 14:21 051 9 gusting 16 30.0
2020-Aug-09 14:10 094 15 gusting 21 29.4
2020-Aug-09 14:00 049 14 gusting 22 30.0
2020-Aug-09 13:51 051 10 gusting 15 30.0
2020-Aug-09 13:40 359 6 gusting 11 30.6
2020-Aug-09 13:30 074 9 gusting 14 30.6
2020-Aug-09 13:20 063 11 gusting 15 30.6
2020-Aug-09 13:10 058 13 gusting 19 30.0
2020-Aug-09 13:00 062 9 gusting 19 30.0
2020-Aug-09 12:50 083 12 gusting 18 30.0
2020-Aug-09 12:40 099 9 gusting 13 30.6
2020-Aug-09 12:31 065 11 gusting 19 30.6
2020-Aug-09 12:20 036 6 gusting 18 31.1
2020-Aug-09 12:10 077 12 gusting 18 31.1
2020-Aug-09 12:01 030 5 gusting 8 31.1
2020-Aug-09 11:50 029 4 gusting 7 31.1
2020-Aug-09 11:40 033 8 gusting 13 31.1
2020-Aug-09 11:31 027 5 gusting 10 31.1
2020-Aug-09 11:20 047 8 gusting 13 31.1
2020-Aug-09 11:10 043 9 gusting 18 30.6
2020-Aug-09 11:01 026 5 gusting 9 31.1
2020-Aug-09 10:50 049 8 gusting 13 30.6
2020-Aug-09 10:40 041 6 gusting 13 30.6
2020-Aug-09 10:31 044 5 gusting 9 30.6
2020-Aug-09 10:20 040 5 gusting 9 30.6
2020-Aug-09 10:10 359 5 gusting 13 30.6
2020-Aug-09 10:01 349 5 gusting 7 30.6
2020-Aug-09 09:50 349 6 gusting 11 30.0
2020-Aug-09 09:40 067 6 gusting 11 30.0
2020-Aug-09 09:31 132 5 gusting 8 30.0
2020-Aug-09 09:20 052 4 gusting 6 29.4
2020-Aug-09 09:10 332 4 gusting 6 29.4
2020-Aug-09 09:01 051 6 gusting 9 30.0
2020-Aug-09 08:50 020 5 gusting 11 29.4
2020-Aug-09 08:40 057 6 gusting 9 29.4
2020-Aug-09 08:31 033 3 gusting 9 29.4
2020-Aug-09 08:20 022 5 gusting 7 28.9
2020-Aug-09 08:10 325 4 gusting 6 28.9
2020-Aug-09 08:01 029 3 gusting 6 28.9
2020-Aug-09 07:50 339 3 gusting 6 28.9
2020-Aug-09 07:40 032 3 gusting 6 27.8
2020-Aug-09 07:31 020 3 gusting 6 28.3
2020-Aug-09 07:20 058 5 gusting 8 28.3
2020-Aug-09 07:10 060 3 gusting 5 28.3
2020-Aug-09 07:01 045 3 gusting 6 27.8
2020-Aug-09 06:50 015 3 gusting 6 28.3
2020-Aug-09 06:40 014 2 gusting 6 28.3
2020-Aug-09 06:31 348 4 gusting 6 27.2
2020-Aug-09 06:20 023 2 gusting 4 26.7
2020-Aug-09 06:10 016 5 gusting 9 26.7
2020-Aug-09 06:01 046 4 gusting 6 26.7
2020-Aug-09 05:50 354 3 gusting 6 26.7
2020-Aug-09 05:40 033 3 gusting 6 26.1
2020-Aug-09 05:31 051 3 gusting 9 25.6
2020-Aug-09 05:20 357 3 gusting 6 25.6
2020-Aug-09 05:10 002 3 gusting 6 25.0
2020-Aug-09 05:01 344 2 gusting 4 25.0
2020-Aug-09 04:50 001 1 gusting 3 23.9
2020-Aug-09 04:40 357 2 gusting 3 23.3
2020-Aug-09 04:31 006 1 gusting 3 22.8
2020-Aug-09 04:20 023 2 gusting 5 22.8
2020-Aug-09 04:10 23.3
2020-Aug-09 04:00 017 2 gusting 8 22.8
2020-Aug-09 03:50 007 2 gusting 3 22.2
2020-Aug-09 03:40 357 2 gusting 5 22.2
2020-Aug-09 03:30 020 2 gusting 3 22.2
2020-Aug-09 03:20 334 2 gusting 4 22.2
2020-Aug-09 03:11 028 2 gusting 3 22.2
2020-Aug-09 03:00 019 2 gusting 5 22.2
2020-Aug-09 02:50 060 3 gusting 6 22.2
2020-Aug-09 02:41 049 2 gusting 4 22.2
2020-Aug-09 02:30 026 3 gusting 6 22.2
2020-Aug-09 02:20 058 2 gusting 6 22.8
2020-Aug-09 02:11 038 2 gusting 5 22.8
2020-Aug-09 02:00 015 2 gusting 4 22.8
2020-Aug-09 01:50 003 3 gusting 6 22.8
2020-Aug-09 01:41 012 2 gusting 7 22.8
2020-Aug-09 01:30 033 2 gusting 5 22.8
2020-Aug-09 01:20 025 3 gusting 9 22.8
2020-Aug-09 01:11 007 3 gusting 5 22.8
2020-Aug-09 01:00 018 2 gusting 5 22.8
2020-Aug-09 00:50 026 2 gusting 4 22.8
2020-Aug-09 00:41 038 2 gusting 3 22.8
2020-Aug-09 00:30 045 3 gusting 6 22.8
2020-Aug-09 00:20 041 2 gusting 3 22.8
2020-Aug-09 00:11 012 1 gusting 3 22.8
2020-Aug-09 00:00 353 1 gusting 2 22.8
2020-Aug-08 23:50 054 1 gusting 3 23.3
2020-Aug-08 23:41 075 1 gusting 3 23.3
2020-Aug-08 23:30 282 1 gusting 3 23.3
2020-Aug-08 23:20 346 2 gusting 3 23.3
2020-Aug-08 23:11 352 2 gusting 3 23.3
2020-Aug-08 23:00 024 2 gusting 3 23.3
2020-Aug-08 22:50 033 1 gusting 3 23.9
2020-Aug-08 22:41 355 2 gusting 3 23.9
2020-Aug-08 22:30 020 2 gusting 4 23.9
2020-Aug-08 22:20 012 2 gusting 3 23.9
2020-Aug-08 22:11 005 2 gusting 4 24.4
2020-Aug-08 22:00 018 3 gusting 7 23.9
2020-Aug-08 21:50 352 2 gusting 4 23.9
2020-Aug-08 21:41 338 3 gusting 6 23.9
2020-Aug-08 21:30 023 3 gusting 6 23.9
2020-Aug-08 21:20 004 2 gusting 3 23.9
2020-Aug-08 21:11 007 2 gusting 4 23.9
2020-Aug-08 21:00 007 2 gusting 3 23.9
2020-Aug-08 20:50 024 2 gusting 3 23.9
2020-Aug-08 20:41 004 2 gusting 3 23.9
2020-Aug-08 20:30 351 1 gusting 3 23.9
2020-Aug-08 20:20 23.9
2020-Aug-08 20:11 350 1 gusting 3 23.9
2020-Aug-08 20:00 351 2 gusting 3 23.9
2020-Aug-08 19:50 013 1 gusting 3 23.9
2020-Aug-08 19:41 017 1 gusting 3 23.9
2020-Aug-08 19:30 008 2 gusting 3 23.9
2020-Aug-08 19:20 021 1 gusting 2 23.9
2020-Aug-08 19:11 021 1 gusting 2 23.9
2020-Aug-08 19:00 007 1 gusting 1 23.9
2020-Aug-08 18:50 036 0 gusting 2 24.4
2020-Aug-08 18:41 019 1 gusting 2 25.0
2020-Aug-08 18:30 045 1 gusting 3 25.0
2020-Aug-08 18:20 330 0 gusting 2 25.0
2020-Aug-08 18:11 059 3 gusting 5 25.6
2020-Aug-08 18:00 041 2 gusting 4 25.6
2020-Aug-08 17:50 029 2 gusting 4 26.1
2020-Aug-08 17:41 345 3 gusting 6 26.7
2020-Aug-08 17:30 018 3 gusting 6 26.7
2020-Aug-08 17:21 073 3 gusting 6 26.7
2020-Aug-08 17:10 048 3 gusting 6 27.2
2020-Aug-08 17:00 077 6 gusting 9 27.8
2020-Aug-08 16:51 038 7 gusting 10 28.3
2020-Aug-08 16:40 059 8 gusting 13 28.3
2020-Aug-08 16:30 058 13 gusting 18 28.9
2020-Aug-08 16:21 051 10 gusting 19 29.4
2020-Aug-08 16:10 084 12 gusting 19 29.4
2020-Aug-08 16:00 070 14 gusting 21 29.4
2020-Aug-08 15:51 054 11 gusting 18 29.4
2020-Aug-08 15:40 050 10 gusting 15 30.0
2020-Aug-08 15:30 072 10 gusting 19 30.6
2020-Aug-08 15:21 046 14 gusting 23 30.0
2020-Aug-08 15:10 054 14 gusting 22 30.0
2020-Aug-08 15:00 041 16 gusting 22 30.0
2020-Aug-08 14:51 056 18 gusting 28 30.0
2020-Aug-08 14:40 064 13 gusting 23 30.6
2020-Aug-08 14:30 010 13 gusting 23 30.6
2020-Aug-08 14:21 045 17 gusting 26 30.6
2020-Aug-08 14:10 069 21 gusting 30 31.1
2020-Aug-08 14:00 061 23 gusting 33 31.7
2020-Aug-08 13:51 045 17 gusting 21 31.7
2020-Aug-08 13:40 052 21 gusting 33 31.7
2020-Aug-08 13:30 070 22 gusting 31 31.7
2020-Aug-08 13:21 035 19 gusting 26 31.7
2020-Aug-08 13:10 044 16 gusting 33 32.2
2020-Aug-08 13:00 044 21 gusting 31 32.2
2020-Aug-08 12:51 045 22 gusting 26 32.8
2020-Aug-08 12:40 046 10 gusting 18 32.8
2020-Aug-08 12:30 091 19 gusting 33 32.8
2020-Aug-08 12:21 036 16 gusting 22 32.8
2020-Aug-08 12:10 071 19 gusting 32 32.8
2020-Aug-08 12:00 088 16 gusting 25 33.3
2020-Aug-08 11:51 045 11 gusting 26 32.8
2020-Aug-08 11:40 072 15 gusting 22 32.8
2020-Aug-08 11:30 066 11 gusting 18 32.8
2020-Aug-08 11:21 054 13 gusting 22 32.2
2020-Aug-08 11:10 018 14 gusting 23 32.2
2020-Aug-08 11:00 043 22 gusting 37 33.3
2020-Aug-08 10:51 048 16 gusting 20 32.8
2020-Aug-08 10:40 033 11 gusting 18 32.8
2020-Aug-08 10:30 050 11 gusting 15 32.8
2020-Aug-08 10:21 077 12 gusting 26 32.8
2020-Aug-08 10:10 073 18 gusting 26 32.8
2020-Aug-08 10:00 052 16 gusting 24 32.8
2020-Aug-08 09:51 064 14 gusting 27 32.8
2020-Aug-08 09:40 029 11 gusting 19 32.8
2020-Aug-08 09:30 036 13 gusting 19 32.8
2020-Aug-08 09:21 045 13 gusting 23 32.8
2020-Aug-08 09:10 073 15 gusting 21 32.8
2020-Aug-08 09:00 069 13 gusting 22 32.2
2020-Aug-08 08:51 043 14 gusting 18 32.2
2020-Aug-08 08:40 054 16 gusting 26 32.2
2020-Aug-08 08:30 045 15 gusting 21 31.7
2020-Aug-08 08:21 045 19 gusting 26 32.2
2020-Aug-08 08:10 065 11 gusting 18 32.2
2020-Aug-08 08:00 063 6 gusting 14 31.7
2020-Aug-08 07:51 074 15 gusting 23 31.7
2020-Aug-08 07:40 046 16 gusting 25 31.7
2020-Aug-08 07:30 101 11 gusting 19 31.7
2020-Aug-08 07:20 083 11 gusting 19 31.1
2020-Aug-08 07:10 066 7 gusting 15 31.1
2020-Aug-08 07:01 078 9 gusting 15 31.1
2020-Aug-08 06:50 055 7 gusting 13 30.6
2020-Aug-08 06:40 305 7 gusting 13 30.0
2020-Aug-08 06:31 013 6 gusting 11 30.0
2020-Aug-08 06:20 056 6 gusting 9 29.4
2020-Aug-08 06:10 038 7 gusting 12 29.4
2020-Aug-08 06:01 023 6 gusting 10 28.9
2020-Aug-08 05:50 058 6 gusting 10 28.3
2020-Aug-08 05:40 036 4 gusting 9 28.3
2020-Aug-08 05:31 057 4 gusting 8 28.3
2020-Aug-08 05:20 030 3 gusting 8 27.2
2020-Aug-08 05:10 043 2 gusting 6 27.2
2020-Aug-08 05:01 059 1 gusting 2 27.2
2020-Aug-08 04:50 342 1 gusting 3 26.1
2020-Aug-08 04:40 047 3 gusting 7 25.6
2020-Aug-08 04:31 358 0 gusting 2 25.0
2020-Aug-08 04:20 027 2 gusting 6 25.0
2020-Aug-08 04:10 005 0 gusting 2 24.4
2020-Aug-08 04:01 333 0 gusting 1 23.9
2020-Aug-08 03:50 032 0 gusting 3 22.8
2020-Aug-08 03:40 212 0 gusting 1 22.2
2020-Aug-08 03:31 053 0 gusting 1 21.7
2020-Aug-08 03:20 017 0 gusting 1 21.1
2020-Aug-08 03:10 028 0 gusting 1 21.1
2020-Aug-08 03:01 007 0 gusting 1 21.1
2020-Aug-08 02:50 007 0 gusting 2 21.1
2020-Aug-08 02:40 010 0 gusting 1 21.1
2020-Aug-08 02:31 018 1 gusting 2 21.1
2020-Aug-08 02:20 005 0 gusting 2 21.1
2020-Aug-08 02:10 21.7
2020-Aug-08 02:01 21.7
2020-Aug-08 01:50 345 0 gusting 1 21.7
2020-Aug-08 01:40 21.7
2020-Aug-08 01:31 350 0 gusting 1 21.7
2020-Aug-08 01:20 019 0 gusting 1 21.7
2020-Aug-08 01:10 010 0 gusting 2 21.7
2020-Aug-08 01:01 014 0 gusting 2 22.2
2020-Aug-08 00:50 22.2
2020-Aug-08 00:40 017 0 gusting 2 22.2
2020-Aug-08 00:31 061 2 gusting 4 22.2
2020-Aug-08 00:20 357 1 gusting 2 22.2
2020-Aug-08 00:10 333 1 gusting 2 22.2
2020-Aug-08 00:01 352 1 gusting 2 22.2
2020-Aug-07 23:50 356 1 gusting 2 22.2
2020-Aug-07 23:40 037 1 gusting 2 22.2
2020-Aug-07 23:31 017 0 gusting 1 22.8
2020-Aug-07 23:20 025 1 gusting 2 22.8
2020-Aug-07 23:10 021 1 gusting 2 22.8
2020-Aug-07 23:01 015 0 gusting 1 22.8
2020-Aug-07 22:50 038 1 gusting 2 22.8
2020-Aug-07 22:40 023 1 gusting 2 22.8
2020-Aug-07 22:31 008 1 gusting 3 22.8
2020-Aug-07 22:20 021 1 gusting 2 22.8
2020-Aug-07 22:10 039 0 gusting 3 22.8
2020-Aug-07 22:00 017 1 gusting 3 22.8
2020-Aug-07 21:50 354 0 gusting 1 23.3
2020-Aug-07 21:40 015 1 gusting 3 23.3
2020-Aug-07 21:31 047 1 gusting 4 23.3
2020-Aug-07 21:20 030 2 gusting 6 23.3
2020-Aug-07 21:10 007 2 gusting 3 23.9
2020-Aug-07 21:00 014 2 gusting 4 23.9
2020-Aug-07 20:50 030 2 gusting 3 23.9
2020-Aug-07 20:41 026 3 gusting 5 23.9
2020-Aug-07 20:30 074 3 gusting 6 23.9
2020-Aug-07 20:20 035 2 gusting 3 23.9
2020-Aug-07 20:11 017 2 gusting 3 24.4
2020-Aug-07 20:00 008 1 gusting 3 24.4